Time;durP1;ratioP1;P1;durP2;ratioP2;P2;SDS_P1;SDS_P2;PMS_P1;PMS_P2;Temp;Humidity;BMP_temperature;BMP_pressure;BME280_temperature;BME280_humidity;BME280_pressure;Samples;Min_cycle;Max_cycle;Signal;HPM_P1;HPM_P2
2021/08/17 00:00:22;;;;;;;8.20;7.40;;;14.20;99.90;;;;;;4937823;29;20971;-93
2021/08/17 00:02:49;;;;;;;13.10;6.13;;;14.20;99.90;;;;;;4939674;29;20465;-92
2021/08/17 00:05:16;;;;;;;9.70;6.03;;;14.20;99.90;;;;;;4944096;29;20462;-92
2021/08/17 00:07:43;;;;;;;9.20;6.60;;;14.30;99.90;;;;;;4959491;29;20467;-92
2021/08/17 00:10:11;;;;;;;7.50;5.63;;;14.20;99.90;;;;;;4941959;29;20822;-93
2021/08/17 00:12:40;;;;;;;9.03;6.13;;;14.20;99.90;;;;;;4939340;29;20454;-93
2021/08/17 00:15:08;;;;;;;6.67;5.40;;;14.20;99.90;;;;;;4939900;29;20565;-93
2021/08/17 00:17:35;;;;;;;8.83;5.77;;;14.10;99.90;;;;;;4942273;29;21021;-93
2021/08/17 00:20:02;;;;;;;6.47;5.77;;;14.10;99.90;;;;;;4940451;29;20464;-92
2021/08/17 00:22:29;;;;;;;9.10;5.63;;;14.10;99.90;;;;;;4939348;29;20454;-93
2021/08/17 00:24:57;;;;;;;7.53;5.20;;;14.00;99.90;;;;;;4940709;29;20483;-93
2021/08/17 00:27:24;;;;;;;8.10;7.20;;;14.00;99.90;;;;;;4935232;29;20462;-92
2021/08/17 00:29:53;;;;;;;7.83;6.10;;;14.00;99.90;;;;;;4920194;29;20460;-93
2021/08/17 00:32:21;;;;;;;11.40;7.50;;;14.10;99.90;;;;;;4920148;29;20463;-93
2021/08/17 00:34:48;;;;;;;9.80;6.40;;;14.10;99.90;;;;;;4920134;29;21031;-92
2021/08/17 00:37:18;;;;;;;9.00;7.13;;;14.10;99.90;;;;;;4929804;29;20487;-92
2021/08/17 00:39:45;;;;;;;10.30;6.80;;;14.00;99.90;;;;;;4942861;29;20880;-95
2021/08/17 00:42:12;;;;;;;10.33;8.07;;;14.00;99.90;;;;;;4934905;29;20475;-92
2021/08/17 00:44:39;;;;;;;8.80;6.77;;;14.00;99.90;;;;;;4921118;29;21002;-93
2021/08/17 00:47:07;;;;;;;11.13;8.17;;;14.00;99.90;;;;;;4922110;29;20481;-93
2021/08/17 00:49:35;;;;;;;12.37;9.60;;;14.10;99.90;;;;;;4926786;29;20454;-93
2021/08/17 00:52:03;;;;;;;6.93;5.77;;;14.10;99.90;;;;;;4940590;29;20457;-93
2021/08/17 00:54:31;;;;;;;7.97;6.47;;;14.10;99.90;;;;;;4938704;29;20477;-93
2021/08/17 00:56:59;;;;;;;13.17;7.37;;;14.10;99.90;;;;;;4936465;29;20544;-92
2021/08/17 00:59:27;;;;;;;10.63;6.80;;;14.20;99.90;;;;;;4919555;29;20461;-92
2021/08/17 01:01:54;;;;;;;8.57;7.37;;;14.20;99.90;;;;;;4926787;29;20462;-92
2021/08/17 01:04:23;;;;;;;9.23;7.63;;;14.20;99.90;;;;;;4940167;29;20467;-94
2021/08/17 01:06:50;;;;;;;9.20;7.67;;;14.20;99.90;;;;;;4933628;29;20457;-92
2021/08/17 01:09:17;;;;;;;9.00;6.93;;;14.10;99.90;;;;;;4936146;29;20441;-93
2021/08/17 01:11:48;;;;;;;7.93;6.37;;;14.10;99.90;;;;;;4934420;29;21038;-93
2021/08/17 01:14:15;;;;;;;9.60;6.73;;;14.10;99.90;;;;;;4925850;29;20491;-92
2021/08/17 01:16:43;;;;;;;7.00;6.00;;;14.20;99.90;;;;;;4920688;29;20491;-92
2021/08/17 01:19:11;;;;;;;8.10;6.67;;;14.20;99.90;;;;;;4934910;29;20463;-93
2021/08/17 01:21:40;;;;;;;8.57;6.60;;;14.10;99.90;;;;;;4919081;29;20521;-93
2021/08/17 01:24:07;;;;;;;8.13;7.30;;;14.00;99.90;;;;;;4923565;29;20484;-92
2021/08/17 01:26:36;;;;;;;7.63;6.27;;;13.90;99.90;;;;;;4921205;29;20453;-93
2021/08/17 01:29:03;;;;;;;10.13;7.63;;;13.80;99.90;;;;;;4922853;29;20459;-92
2021/08/17 01:31:31;;;;;;;10.40;7.30;;;13.70;99.90;;;;;;4926062;29;20448;-94
2021/08/17 01:33:58;;;;;;;8.50;6.50;;;13.60;99.90;;;;;;4923062;29;20459;-92
2021/08/17 01:36:25;;;;;;;7.40;6.20;;;13.60;99.90;;;;;;4919712;29;20565;-93
2021/08/17 01:38:52;;;;;;;7.43;5.80;;;13.70;99.90;;;;;;4919108;29;20486;-92
2021/08/17 01:41:19;;;;;;;10.67;7.33;;;13.70;99.90;;;;;;4924619;29;20461;-92
2021/08/17 01:43:48;;;;;;;7.40;5.50;;;13.60;99.90;;;;;;4941372;29;20439;-93
2021/08/17 01:46:16;;;;;;;8.03;6.40;;;13.50;99.90;;;;;;4937978;29;20436;-92
2021/08/17 01:48:43;;;;;;;7.93;5.93;;;13.50;99.90;;;;;;4920739;29;20451;-92
2021/08/17 01:51:11;;;;;;;11.80;7.03;;;13.50;99.90;;;;;;4918456;29;20459;-93
2021/08/17 01:53:39;;;;;;;10.90;7.23;;;13.50;99.90;;;;;;4918627;29;20465;-92
2021/08/17 01:56:08;;;;;;;7.03;5.40;;;13.40;99.90;;;;;;4918752;29;20491;-93
2021/08/17 01:58:35;;;;;;;7.27;6.00;;;13.50;99.90;;;;;;4917746;29;20935;-93
2021/08/17 02:01:04;;;;;;;11.27;6.20;;;13.50;99.90;;;;;;4918535;29;20555;-92
2021/08/17 02:03:34;;;;;;;10.17;6.07;;;13.40;99.90;;;;;;4918476;29;20459;-93
2021/08/17 02:06:01;;;;;;;10.43;6.83;;;13.40;99.90;;;;;;4918120;29;20480;-92
2021/08/17 02:08:28;;;;;;;9.23;6.20;;;13.30;99.90;;;;;;4918046;29;20482;-92
2021/08/17 02:10:55;;;;;;;11.20;6.43;;;13.40;99.90;;;;;;4918100;29;20466;-92
2021/08/17 02:13:23;;;;;;;9.90;6.20;;;13.30;99.90;;;;;;4918007;29;20460;-93
2021/08/17 02:15:51;;;;;;;7.80;5.63;;;13.30;99.90;;;;;;4929810;29;20475;-93
2021/08/17 02:18:20;;;;;;;8.43;6.50;;;13.20;99.90;;;;;;4938080;29;20478;-92
2021/08/17 02:20:47;;;;;;;8.17;6.00;;;13.20;99.90;;;;;;4936329;29;20454;-93
2021/08/17 02:23:13;;;;;;;12.70;7.83;;;13.20;99.90;;;;;;4936564;29;20453;-92
2021/08/17 02:25:41;;;;;;;8.67;6.10;;;13.20;99.90;;;;;;4917397;29;20478;-92
2021/08/17 02:28:08;;;;;;;9.00;6.10;;;13.10;99.90;;;;;;4928468;29;20466;-92
2021/08/17 02:30:34;;;;;;;9.63;7.33;;;13.10;99.90;;;;;;4941607;29;20458;-92
2021/08/17 02:33:01;;;;;;;7.77;5.60;;;12.90;99.90;;;;;;4938697;29;20458;-92
2021/08/17 02:35:30;;;;;;;12.03;6.63;;;12.90;99.90;;;;;;4937121;29;20998;-92
2021/08/17 02:37:56;;;;;;;8.40;5.70;;;12.80;99.90;;;;;;4937562;29;20489;-94
2021/08/17 02:40:52;;;;;;;8.73;6.40;;;12.80;99.90;;;;;;4938998;29;20470;-93
2021/08/17 02:43:23;;;;;;;8.37;5.70;;;12.80;99.90;;;;;;4938442;29;20454;-92
2021/08/17 02:45:51;;;;;;;9.10;6.90;;;12.60;99.90;;;;;;4946207;29;20485;-92
2021/08/17 02:48:19;;;;;;;8.97;5.70;;;12.60;99.90;;;;;;4947438;29;20446;-92
2021/08/17 02:50:47;;;;;;;7.50;5.90;;;12.60;99.90;;;;;;4950725;29;20461;-92
2021/08/17 02:53:15;;;;;;;9.47;5.90;;;12.50;99.90;;;;;;4960901;29;20439;-94
2021/08/17 02:55:41;;;;;;;12.23;6.30;;;12.50;99.90;;;;;;4954415;29;20549;-93
2021/08/17 02:58:08;;;;;;;6.80;5.87;;;12.50;99.90;;;;;;4958814;29;20461;-94
2021/08/17 03:00:35;;;;;;;7.20;6.00;;;12.50;99.90;;;;;;4949036;29;20458;-92
2021/08/17 03:03:03;;;;;;;9.13;6.93;;;12.50;99.90;;;;;;4937351;29;20458;-93
2021/08/17 03:05:30;;;;;;;9.70;6.03;;;12.50;99.90;;;;;;4937495;29;20709;-92
2021/08/17 03:08:03;;;;;;;8.50;5.67;;;12.50;99.90;;;;;;4938140;29;20454;-93
2021/08/17 03:10:30;;;;;;;7.50;5.67;;;12.60;99.90;;;;;;4936808;29;20540;-93
2021/08/17 03:12:57;;;;;;;9.23;5.40;;;12.60;99.90;;;;;;4926052;29;21055;-92
2021/08/17 03:15:32;;;;;;;7.90;5.33;;;12.60;99.90;;;;;;4919002;29;20474;-92
2021/08/17 03:18:00;;;;;;;7.30;5.90;;;12.50;99.90;;;;;;4918196;29;20511;-93
2021/08/17 03:20:28;;;;;;;9.10;6.40;;;12.40;99.90;;;;;;4917842;29;20463;-92
2021/08/17 03:22:55;;;;;;;10.50;6.37;;;12.40;99.90;;;;;;4927448;29;20457;-95
2021/08/17 03:25:26;;;;;;;8.97;6.17;;;12.40;99.90;;;;;;4927876;29;20482;-93
2021/08/17 03:27:53;;;;;;;6.57;5.67;;;12.40;99.90;;;;;;4922094;29;20507;-93
2021/08/17 03:30:21;;;;;;;10.50;7.20;;;12.40;99.90;;;;;;4918078;29;20472;-93
2021/08/17 03:32:48;;;;;;;8.40;4.80;;;12.40;99.90;;;;;;4917921;29;20455;-93
2021/08/17 03:35:17;;;;;;;7.00;5.30;;;12.40;99.90;;;;;;4919810;29;20481;-92
2021/08/17 03:37:45;;;;;;;7.23;5.50;;;12.60;99.90;;;;;;4921256;29;20866;-92
2021/08/17 03:40:14;;;;;;;6.60;5.03;;;12.60;99.90;;;;;;4921881;29;20480;-93
2021/08/17 03:42:43;;;;;;;7.40;6.50;;;12.50;99.90;;;;;;4923627;29;20458;-93
2021/08/17 03:45:12;;;;;;;7.80;5.93;;;12.50;99.90;;;;;;4922059;29;20489;-92
2021/08/17 03:47:40;;;;;;;10.10;6.10;;;12.50;99.90;;;;;;4921720;29;20461;-92
2021/08/17 03:50:09;;;;;;;7.83;5.10;;;12.50;99.90;;;;;;4921043;29;20581;-92
2021/08/17 03:52:36;;;;;;;7.83;5.90;;;12.50;99.90;;;;;;4921186;29;20454;-92
2021/08/17 03:55:04;;;;;;;7.57;6.50;;;12.40;99.90;;;;;;4927964;29;20465;-93
2021/08/17 03:57:31;;;;;;;6.90;5.60;;;12.40;99.90;;;;;;4944172;29;20492;-95
2021/08/17 03:59:59;;;;;;;6.80;5.53;;;12.30;99.90;;;;;;4926428;29;20957;-93
2021/08/17 04:02:26;;;;;;;9.53;6.80;;;12.30;99.90;;;;;;4922283;29;20537;-93
2021/08/17 04:04:53;;;;;;;7.03;5.77;;;12.30;99.90;;;;;;4922466;29;20501;-93
2021/08/17 04:07:20;;;;;;;7.77;5.50;;;12.30;99.90;;;;;;4921125;29;20461;-93
2021/08/17 04:09:47;;;;;;;6.87;5.40;;;12.30;99.90;;;;;;4920559;29;20556;-93
2021/08/17 04:12:14;;;;;;;8.50;6.00;;;12.30;99.90;;;;;;4920738;29;20465;-92
2021/08/17 04:14:42;;;;;;;10.87;6.10;;;12.40;99.90;;;;;;4920487;29;20561;-91
2021/08/17 04:17:28;;;;;;;10.50;6.20;;;12.30;99.90;;;;;;4931575;29;20531;-91
2021/08/17 04:19:55;;;;;;;13.53;6.00;;;12.40;99.90;;;;;;4944612;29;20454;-91
2021/08/17 04:22:22;;;;;;;8.03;5.80;;;12.50;99.90;;;;;;4941443;29;20454;-91
2021/08/17 04:24:49;;;;;;;6.80;4.70;;;12.50;99.90;;;;;;4945458;29;20499;-91
2021/08/17 04:27:16;;;;;;;7.00;5.03;;;12.50;99.90;;;;;;4948772;29;20539;-91
2021/08/17 04:29:44;;;;;;;7.30;5.70;;;12.50;99.90;;;;;;4939536;29;20456;-91
2021/08/17 04:32:12;;;;;;;6.33;4.97;;;12.50;99.90;;;;;;4940817;29;20455;-91
2021/08/17 04:34:40;;;;;;;7.47;5.80;;;12.40;99.90;;;;;;4939909;29;20477;-92
2021/08/17 04:37:07;;;;;;;8.63;6.87;;;12.50;99.90;;;;;;4926729;29;20959;-91
2021/08/17 04:39:36;;;;;;;10.30;6.60;;;12.40;99.90;;;;;;4920575;29;20514;-91
2021/08/17 04:42:04;;;;;;;10.40;5.67;;;12.40;99.90;;;;;;4936790;29;20559;-93
2021/08/17 04:44:31;;;;;;;8.23;6.00;;;12.40;99.90;;;;;;4940028;29;20573;-91
2021/08/17 04:46:58;;;;;;;12.73;5.40;;;12.40;99.90;;;;;;4938497;29;20453;-93
2021/08/17 04:49:25;;;;;;;8.90;4.83;;;12.50;99.90;;;;;;4925746;29;20936;-91
2021/08/17 04:51:55;;;;;;;8.03;5.60;;;12.50;99.90;;;;;;4924351;29;20460;-92
2021/08/17 04:54:22;;;;;;;7.50;5.30;;;12.60;99.90;;;;;;4928997;29;20565;-92
2021/08/17 04:56:53;;;;;;;11.30;5.73;;;12.60;99.90;;;;;;4924428;29;20466;-92
2021/08/17 04:59:20;;;;;;;8.83;6.20;;;12.60;99.90;;;;;;4922231;29;20489;-93
2021/08/17 05:01:49;;;;;;;8.40;5.67;;;12.70;99.90;;;;;;4921982;29;20458;-92
2021/08/17 05:04:39;;;;;;;6.17;4.83;;;12.80;99.90;;;;;;4934158;29;20479;-92
2021/08/17 05:07:08;;;;;;;6.57;4.83;;;12.70;99.90;;;;;;4943050;29;20527;-93
2021/08/17 05:09:35;;;;;;;6.97;5.27;;;12.80;99.90;;;;;;4923842;29;20457;-93
2021/08/17 05:12:02;;;;;;;6.60;5.13;;;12.90;99.90;;;;;;4922942;29;20978;-92
2021/08/17 05:14:29;;;;;;;7.23;5.90;;;13.00;99.90;;;;;;4925421;29;20510;-92
2021/08/17 05:16:56;;;;;;;7.57;4.77;;;13.00;99.90;;;;;;4921250;29;20559;-92
2021/08/17 05:31:48;;;;;;;6.67;5.73;;;13.80;99.90;;;;;;4936484;29;20442;-92
2021/08/17 05:34:15;;;;;;;7.00;5.93;;;14.10;99.90;;;;;;4929293;29;20825;-83
2021/08/17 05:36:42;;;;;;;7.33;5.27;;;14.50;99.90;;;;;;4928340;29;20456;-84
2021/08/17 05:39:10;;;;;;;6.40;5.30;;;15.00;99.90;;;;;;4926232;29;20491;-83
2021/08/17 05:41:37;;;;;;;6.10;5.33;;;15.20;99.90;;;;;;4927697;29;20447;-84
2021/08/17 05:44:04;;;;;;;10.07;6.37;;;15.20;99.90;;;;;;4928743;29;20451;-84
2021/08/17 05:46:30;;;;;;;9.30;5.20;;;15.10;99.90;;;;;;4929677;29;20449;-84
2021/08/17 05:48:57;;;;;;;7.20;5.03;;;15.10;99.90;;;;;;4935674;29;20819;-85
2021/08/17 05:51:24;;;;;;;9.90;6.10;;;15.40;99.90;;;;;;4931214;29;20458;-83
2021/08/17 05:53:51;;;;;;;6.40;4.77;;;15.80;99.90;;;;;;4935763;29;20473;-84
2021/08/17 05:56:19;;;;;;;9.33;5.10;;;16.10;99.90;;;;;;4926427;29;20454;-83
2021/08/17 05:58:45;;;;;;;5.63;4.50;;;16.00;99.90;;;;;;4925849;29;20489;-84
2021/08/17 06:01:12;;;;;;;7.03;5.70;;;16.30;99.90;;;;;;4938801;29;20464;-84
2021/08/17 06:03:39;;;;;;;5.77;4.40;;;17.00;99.90;;;;;;4950150;29;20462;-85
2021/08/17 06:06:05;;;;;;;6.90;5.40;;;17.60;99.90;;;;;;4944559;29;20477;-84
2021/08/17 06:08:32;;;;;;;8.43;6.17;;;18.00;99.90;;;;;;4941578;29;20444;-85
2021/08/17 06:10:59;;;;;;;7.20;6.50;;;18.60;99.70;;;;;;4939691;29;20450;-84
2021/08/17 06:13:28;;;;;;;6.77;5.60;;;19.00;98.20;;;;;;4939652;29;20460;-84
2021/08/17 06:15:55;;;;;;;7.63;5.70;;;19.60;97.20;;;;;;4938795;29;20476;-84
2021/08/17 06:18:21;;;;;;;6.27;4.50;;;19.90;95.20;;;;;;4940829;29;21032;-83
2021/08/17 06:20:48;;;;;;;9.63;4.60;;;19.80;94.20;;;;;;4941492;29;20436;-83
2021/08/17 06:23:15;;;;;;;6.13;5.20;;;20.00;93.80;;;;;;4941984;29;20452;-84
2021/08/17 06:25:42;;;;;;;5.60;4.63;;;20.20;93.60;;;;;;4941352;29;20474;-83
2021/08/17 06:28:09;;;;;;;4.80;4.30;;;20.20;92.70;;;;;;4950692;29;20510;-82
2021/08/17 06:30:39;;;;;;;4.83;4.03;;;20.00;92.50;;;;;;4935776;29;20467;-84
2021/08/17 06:33:06;;;;;;;5.33;4.83;;;20.20;93.40;;;;;;4934507;29;20525;-83
2021/08/17 06:35:33;;;;;;;5.00;4.30;;;20.70;92.10;;;;;;4923121;29;20487;-83
2021/08/17 06:38:00;;;;;;;5.70;5.10;;;20.60;90.20;;;;;;4923340;29;20463;-83
2021/08/17 06:40:27;;;;;;;8.00;4.80;;;21.20;90.30;;;;;;4921938;29;20451;-84
2021/08/17 06:42:54;;;;;;;7.80;5.37;;;21.60;86.00;;;;;;4922596;29;20461;-83
2021/08/17 06:45:21;;;;;;;5.53;5.03;;;21.90;85.70;;;;;;4928064;29;20483;-83
2021/08/17 06:47:52;;;;;;;5.23;4.53;;;22.70;81.60;;;;;;4925388;29;20455;-83
2021/08/17 06:50:20;;;;;;;7.87;4.77;;;22.60;80.20;;;;;;4922487;29;20456;-84
2021/08/17 06:52:47;;;;;;;6.50;5.77;;;23.00;78.70;;;;;;4936600;29;20474;-82
2021/08/17 06:55:15;;;;;;;6.90;5.37;;;23.30;76.30;;;;;;4942002;29;20486;-82
2021/08/17 06:57:42;;;;;;;7.47;6.53;;;22.70;75.50;;;;;;4944561;29;20828;-82
2021/08/17 07:00:11;;;;;;;7.80;5.20;;;21.80;75.70;;;;;;4942641;29;20496;-85
2021/08/17 07:02:38;;;;;;;7.80;6.57;;;21.10;80.00;;;;;;4944213;29;20462;-85
2021/08/17 07:05:07;;;;;;;7.67;4.93;;;21.10;81.00;;;;;;4943474;29;20573;-82
2021/08/17 07:07:34;;;;;;;6.30;5.37;;;21.00;81.70;;;;;;4941934;29;20442;-85
2021/08/17 07:10:01;;;;;;;5.97;5.20;;;21.40;82.60;;;;;;4944254;29;20445;-83
2021/08/17 07:12:28;;;;;;;6.50;5.07;;;22.50;80.50;;;;;;4938932;29;20448;-80
2021/08/17 07:14:54;;;;;;;6.17;5.57;;;23.00;77.00;;;;;;4931560;29;20470;-81
2021/08/17 07:17:21;;;;;;;8.03;6.40;;;23.80;76.40;;;;;;4924432;29;20461;-85
2021/08/17 07:19:48;;;;;;;7.73;5.47;;;24.40;74.10;;;;;;4919847;29;20497;-83
2021/08/17 07:22:16;;;;;;;6.67;5.60;;;25.10;72.10;;;;;;4918967;29;20462;-82
2021/08/17 07:24:42;;;;;;;6.63;5.90;;;25.70;70.00;;;;;;4918481;29;21017;-83
2021/08/17 07:27:11;;;;;;;5.53;5.03;;;26.60;66.20;;;;;;4918583;29;20473;-83
2021/08/17 07:29:39;;;;;;;6.63;6.03;;;26.70;62.60;;;;;;4918324;29;20455;-85
2021/08/17 07:32:06;;;;;;;6.77;6.07;;;26.00;63.70;;;;;;4921516;29;20451;-83
2021/08/17 07:34:33;;;;;;;6.27;5.27;;;26.20;65.20;;;;;;4919488;29;20984;-83
2021/08/17 07:36:59;;;;;;;7.03;5.07;;;26.30;61.60;;;;;;4919953;29;20450;-83
2021/08/17 07:39:28;;;;;;;6.00;5.40;;;26.20;62.90;;;;;;4919182;29;20886;-83
2021/08/17 07:41:55;;;;;;;6.00;5.47;;;26.50;59.50;;;;;;4920468;29;20810;-83
2021/08/17 07:44:22;;;;;;;6.80;5.30;;;26.30;60.20;;;;;;4920678;29;20472;-83
2021/08/17 07:46:49;;;;;;;6.07;5.50;;;26.70;61.40;;;;;;4928227;29;20450;-84
2021/08/17 07:49:15;;;;;;;7.37;6.13;;;26.80;59.10;;;;;;4936061;29;20446;-82
2021/08/17 07:51:42;;;;;;;6.17;5.57;;;25.60;59.40;;;;;;4932352;29;20439;-83
2021/08/17 07:54:09;;;;;;;5.67;5.10;;;25.30;62.50;;;;;;4926957;29;20476;-83
2021/08/17 07:56:37;;;;;;;6.60;4.70;;;25.40;61.50;;;;;;4943043;29;20481;-83
2021/08/17 07:59:04;;;;;;;5.60;5.00;;;25.00;61.30;;;;;;4940895;29;20878;-83
2021/08/17 08:01:31;;;;;;;6.90;6.20;;;25.10;60.70;;;;;;4941699;29;20517;-84
2021/08/17 08:04:00;;;;;;;6.23;5.13;;;26.00;59.90;;;;;;4939952;29;20588;-84
2021/08/17 08:06:26;;;;;;;6.00;5.50;;;26.10;58.80;;;;;;4940431;29;20461;-83
2021/08/17 08:08:53;;;;;;;6.60;5.90;;;26.50;57.90;;;;;;4941058;29;21181;-84
2021/08/17 08:11:20;;;;;;;5.67;5.17;;;26.10;58.30;;;;;;4942398;29;20453;-82
2021/08/17 08:13:48;;;;;;;6.20;5.60;;;24.80;60.20;;;;;;4954829;29;20504;-82
2021/08/17 08:16:15;;;;;;;6.67;6.03;;;23.20;63.00;;;;;;4947437;29;20453;-82
2021/08/17 08:18:41;;;;;;;7.13;6.43;;;23.50;66.90;;;;;;4948410;29;20492;-84
2021/08/17 08:21:08;;;;;;;6.07;5.47;;;24.50;64.30;;;;;;4943513;29;20450;-84
2021/08/17 08:23:36;;;;;;;7.30;5.80;;;26.30;60.20;;;;;;4928477;29;20451;-84
2021/08/17 08:26:03;;;;;;;6.53;5.57;;;27.90;56.80;;;;;;4923435;29;20503;-83
2021/08/17 08:28:30;;;;;;;6.90;5.50;;;29.30;53.50;;;;;;4922850;29;20455;-83
2021/08/17 08:30:58;;;;;;;7.70;5.80;;;29.50;52.20;;;;;;4922502;29;20458;-83
2021/08/17 08:33:24;;;;;;;6.67;5.43;;;28.10;52.20;;;;;;4920557;29;20967;-84
2021/08/17 08:35:51;;;;;;;6.20;5.60;;;27.50;54.10;;;;;;4923439;29;20467;-83
2021/08/17 08:38:18;;;;;;;6.30;5.70;;;27.00;54.30;;;;;;4937338;29;20475;-83
2021/08/17 08:40:46;;;;;;;5.17;4.60;;;25.50;53.30;;;;;;4943034;29;20513;-83
2021/08/17 08:43:13;;;;;;;7.63;6.47;;;24.50;56.70;;;;;;4944815;29;20997;-83
2021/08/17 08:45:40;;;;;;;6.17;5.57;;;24.30;56.90;;;;;;4946002;29;20480;-83
2021/08/17 08:48:08;;;;;;;7.27;5.90;;;24.10;56.90;;;;;;4944297;29;20453;-83
2021/08/17 08:50:35;;;;;;;6.57;5.83;;;24.00;57.50;;;;;;4940820;29;20446;-82
2021/08/17 08:53:01;;;;;;;6.43;5.83;;;24.10;57.70;;;;;;4925198;29;20454;-83
2021/08/17 08:55:28;;;;;;;7.60;6.70;;;24.30;57.10;;;;;;4925115;29;20463;-83
2021/08/17 08:57:55;;;;;;;7.30;6.57;;;24.30;57.90;;;;;;4922338;29;20439;-86
2021/08/17 09:00:22;;;;;;;7.23;6.47;;;24.00;57.60;;;;;;4923417;29;20489;-84
2021/08/17 09:02:51;;;;;;;8.33;5.87;;;24.40;57.10;;;;;;4925498;29;20976;-84
2021/08/17 09:05:21;;;;;;;7.17;6.17;;;25.20;57.00;;;;;;4924264;29;20466;-83
2021/08/17 09:07:48;;;;;;;6.37;5.27;;;26.60;54.80;;;;;;4923374;29;20462;-83
2021/08/17 09:10:17;;;;;;;10.87;5.93;;;28.10;52.10;;;;;;4925779;29;20443;-82
2021/08/17 09:12:46;;;;;;;5.70;5.20;;;28.90;50.80;;;;;;4925170;29;20459;-83
2021/08/17 09:15:15;;;;;;;7.00;6.30;;;28.20;49.20;;;;;;4926499;29;20530;-83
2021/08/17 09:17:42;;;;;;;8.47;5.77;;;29.00;49.80;;;;;;4930488;29;20462;-83
2021/08/17 09:20:14;;;;;;;5.43;4.93;;;30.00;47.50;;;;;;4957509;29;20510;-82
2021/08/17 09:22:43;;;;;;;6.70;6.00;;;31.00;45.20;;;;;;4957492;29;20458;-83
2021/08/17 09:25:10;;;;;;;5.73;5.23;;;30.90;44.50;;;;;;4944611;29;20545;-82
2021/08/17 09:27:38;;;;;;;6.87;6.00;;;31.00;44.40;;;;;;4945711;29;20456;-82
2021/08/17 09:30:09;;;;;;;6.07;5.43;;;31.20;43.80;;;;;;4949732;29;20470;-82
2021/08/17 09:32:50;;;;;;;5.97;5.47;;;30.00;44.40;;;;;;4935563;29;20465;-82
2021/08/17 09:35:19;;;;;;;5.93;5.43;;;28.90;45.60;;;;;;4934233;29;20473;-80
2021/08/17 09:38:05;;;;;;;6.60;5.83;;;27.70;46.60;;;;;;4936202;29;20443;-81
2021/08/17 09:40:32;;;;;;;6.23;5.57;;;26.80;47.30;;;;;;4934225;29;20482;-82
2021/08/17 09:43:13;;;;;;;6.73;5.57;;;26.00;49.50;;;;;;4939503;29;20434;-81
2021/08/17 09:45:40;;;;;;;8.20;5.23;;;25.50;51.50;;;;;;4934619;29;20450;-82
2021/08/17 09:48:07;;;;;;;6.10;5.50;;;25.90;50.80;;;;;;4947447;29;20517;-81
2021/08/17 09:50:38;;;;;;;5.37;4.87;;;26.60;50.10;;;;;;4952304;29;20570;-81
2021/08/17 09:53:09;;;;;;;5.93;4.90;;;26.50;48.70;;;;;;4952321;29;20454;-81
2021/08/17 09:55:44;;;;;;;6.60;5.80;;;26.20;49.00;;;;;;4951758;29;21038;-81
2021/08/17 09:58:22;;;;;;;5.00;4.50;;;26.00;49.90;;;;;;4953512;29;20430;-83
2021/08/17 10:00:51;;;;;;;7.13;6.20;;;25.30;50.60;;;;;;4951214;29;20871;-83
2021/08/17 10:03:19;;;;;;;6.70;5.67;;;24.70;52.20;;;;;;4953734;29;20443;-82
2021/08/17 10:05:46;;;;;;;6.70;5.30;;;24.40;52.60;;;;;;4945003;29;20481;-84
2021/08/17 10:08:16;;;;;;;7.60;5.73;;;24.50;52.20;;;;;;4942962;29;20457;-83
2021/08/17 10:10:44;;;;;;;7.60;5.47;;;24.50;52.20;;;;;;4942338;29;20485;-86
2021/08/17 10:13:13;;;;;;;8.20;6.20;;;24.50;52.40;;;;;;4941746;29;20954;-83
2021/08/17 10:15:40;;;;;;;8.63;5.47;;;24.30;52.30;;;;;;4923821;29;20473;-84
2021/08/17 10:18:08;;;;;;;6.07;5.47;;;24.20;51.60;;;;;;4922448;29;20994;-82
2021/08/17 10:20:37;;;;;;;7.10;6.10;;;24.10;50.90;;;;;;4922273;29;21018;-82
2021/08/17 10:23:04;;;;;;;6.80;5.17;;;23.90;51.30;;;;;;4929356;29;20448;-83
2021/08/17 10:25:43;;;;;;;6.30;5.70;;;23.60;51.20;;;;;;4957181;23;20500;-84
2021/08/17 10:28:30;;;;;;;5.50;5.00;;;23.10;52.00;;;;;;4956918;28;20446;-84
2021/08/17 10:30:58;;;;;;;5.53;4.67;;;22.80;53.50;;;;;;4957973;28;20455;-85
2021/08/17 10:33:41;;;;;;;7.27;6.57;;;22.70;53.50;;;;;;4956823;28;20445;-85
2021/08/17 10:36:09;;;;;;;7.50;6.00;;;22.80;54.60;;;;;;4973853;28;20593;-85
2021/08/17 10:38:45;;;;;;;6.77;6.13;;;23.20;53.90;;;;;;4977365;28;20450;-87
2021/08/17 10:41:15;;;;;;;7.90;5.77;;;23.80;54.00;;;;;;4984722;28;20500;-85
2021/08/17 10:44:05;;;;;;;4.87;4.37;;;25.20;52.20;;;;;;4963508;28;20457;-85
2021/08/17 10:46:57;;;;;;;6.40;4.97;;;27.10;48.90;;;;;;4964276;28;20456;-85
2021/08/17 10:49:40;;;;;;;8.00;7.20;;;27.30;47.40;;;;;;4957283;28;20836;-85
2021/08/17 10:52:08;;;;;;;6.00;5.37;;;26.50;47.70;;;;;;4958625;28;20455;-85
2021/08/17 10:54:37;;;;;;;6.23;5.60;;;26.10;49.40;;;;;;4958429;28;20483;-86
2021/08/17 10:57:20;;;;;;;5.83;5.10;;;28.00;47.30;;;;;;4956755;28;20452;-85
2021/08/17 10:59:48;;;;;;;3.93;3.63;;;29.70;43.20;;;;;;4961272;28;20511;-85
2021/08/17 11:02:17;;;;;;;5.37;4.87;;;31.10;42.60;;;;;;4962261;28;20945;-85
2021/08/17 11:04:45;;;;;;;5.97;4.87;;;31.30;41.00;;;;;;4963247;28;20563;-85
2021/08/17 11:07:26;;;;;;;5.87;5.20;;;32.00;40.60;;;;;;4959231;28;20449;-86
2021/08/17 11:09:54;;;;;;;5.83;4.97;;;30.80;41.40;;;;;;4957050;28;20451;-85
2021/08/17 11:12:34;;;;;;;5.43;4.93;;;30.30;42.30;;;;;;4955885;28;20456;-85
2021/08/17 11:15:01;;;;;;;5.97;5.37;;;29.70;43.20;;;;;;4957860;28;20551;-85
2021/08/17 11:17:28;;;;;;;5.50;4.87;;;29.80;43.20;;;;;;4955866;28;20515;-85
2021/08/17 11:19:56;;;;;;;5.80;5.07;;;30.20;43.00;;;;;;4955312;28;20484;-84
2021/08/17 11:22:25;;;;;;;6.43;5.67;;;30.50;43.40;;;;;;4957114;28;20491;-85
2021/08/17 11:24:54;;;;;;;6.57;5.00;;;30.50;41.60;;;;;;4955788;28;20900;-86
2021/08/17 11:27:24;;;;;;;9.30;5.50;;;30.90;41.30;;;;;;4956440;28;20511;-85
2021/08/17 11:29:53;;;;;;;6.53;5.40;;;31.00;41.10;;;;;;4966835;28;20448;-85
2021/08/17 11:32:29;;;;;;;4.90;4.40;;;31.40;40.40;;;;;;4963834;28;20457;-86
2021/08/17 11:34:56;;;;;;;6.10;4.23;;;32.60;38.50;;;;;;4955718;28;20502;-86
2021/08/17 11:37:30;;;;;;;6.07;4.30;;;33.90;35.80;;;;;;4958617;28;20455;-85
2021/08/17 11:39:59;;;;;;;4.30;3.90;;;35.60;34.30;;;;;;4954968;28;20487;-84
2021/08/17 11:42:28;;;;;;;4.60;4.10;;;35.30;32.00;;;;;;4955437;28;20456;-85
2021/08/17 11:44:58;;;;;;;4.30;3.90;;;35.90;30.20;;;;;;4955250;28;20488;-85
2021/08/17 11:47:25;;;;;;;6.27;5.47;;;36.80;30.10;;;;;;4967826;28;20449;-86
2021/08/17 11:49:54;;;;;;;4.33;3.93;;;36.60;29.70;;;;;;4965702;28;20822;-85
2021/08/17 11:52:22;;;;;;;5.37;4.87;;;34.20;31.50;;;;;;4959627;28;20433;-85
2021/08/17 11:54:54;;;;;;;4.67;4.27;;;34.50;32.30;;;;;;4966554;28;20469;-85
2021/08/17 11:57:23;;;;;;;4.43;4.00;;;35.90;32.10;;;;;;4964322;28;20460;-84
2021/08/17 11:59:52;;;;;;;4.37;3.97;;;32.80;31.80;;;;;;4961576;28;21053;-84
2021/08/17 12:02:22;;;;;;;7.20;6.20;;;31.50;36.40;;;;;;4961178;28;20449;-84
2021/08/17 12:04:50;;;;;;;6.30;5.57;;;31.40;36.30;;;;;;4960897;28;20460;-85
2021/08/17 12:07:17;;;;;;;5.70;5.20;;;30.60;38.10;;;;;;4966053;28;20466;-85
2021/08/17 12:09:45;;;;;;;5.70;5.20;;;31.50;36.90;;;;;;4979022;28;20455;-85
2021/08/17 12:12:15;;;;;;;5.40;3.80;;;32.70;35.10;;;;;;4978764;28;20800;-85
2021/08/17 12:14:42;;;;;;;4.83;4.40;;;32.90;34.00;;;;;;4978965;28;20890;-84
2021/08/17 12:17:12;;;;;;;4.63;4.10;;;32.80;34.80;;;;;;4984496;28;21154;-84
2021/08/17 12:19:46;;;;;;;3.50;3.20;;;32.20;33.70;;;;;;4996920;28;20448;-84
2021/08/17 12:22:24;;;;;;;3.73;3.43;;;33.40;33.60;;;;;;4999530;28;20427;-84
2021/08/17 12:24:52;;;;;;;4.17;3.40;;;34.30;32.20;;;;;;4990438;28;20479;-86
2021/08/17 12:27:27;;;;;;;4.13;3.73;;;34.70;30.80;;;;;;4980862;28;20536;-85
2021/08/17 12:29:54;;;;;;;8.07;4.40;;;35.60;30.60;;;;;;4980774;28;20458;-86
2021/08/17 12:32:25;;;;;;;3.70;3.40;;;36.90;29.40;;;;;;4981361;28;20542;-85
2021/08/17 12:34:53;;;;;;;4.47;3.93;;;37.50;28.70;;;;;;4978444;28;20471;-86
2021/08/17 12:37:31;;;;;;;4.40;4.00;;;37.00;29.00;;;;;;4979851;28;20456;-86
2021/08/17 12:39:59;;;;;;;4.23;3.83;;;36.60;29.40;;;;;;4979412;28;20424;-85
2021/08/17 12:42:27;;;;;;;4.47;4.07;;;36.40;29.40;;;;;;4979424;28;20459;-85
2021/08/17 12:44:54;;;;;;;4.90;4.30;;;35.60;29.40;;;;;;4979016;28;20920;-86
2021/08/17 12:47:25;;;;;;;5.50;5.00;;;35.20;29.80;;;;;;4981453;28;20451;-85
2021/08/17 12:49:54;;;;;;;5.70;4.03;;;35.10;30.20;;;;;;4985570;28;20448;-84
2021/08/17 12:52:24;;;;;;;6.50;4.80;;;34.70;30.30;;;;;;4981646;28;20797;-85
2021/08/17 12:54:51;;;;;;;5.70;4.73;;;34.40;30.90;;;;;;4977425;28;20483;-85
2021/08/17 12:57:21;;;;;;;4.67;4.23;;;35.00;30.30;;;;;;4977751;28;20523;-85
2021/08/17 12:59:48;;;;;;;4.43;4.00;;;34.60;30.70;;;;;;4976700;28;20440;-85
2021/08/17 13:02:15;;;;;;;5.33;4.93;;;34.10;31.00;;;;;;4977646;28;20444;-85
2021/08/17 13:04:43;;;;;;;4.87;4.43;;;32.70;32.20;;;;;;4977058;28;20899;-85